Time;durP1;ratioP1;P1;durP2;ratioP2;P2;SDS_P1;SDS_P2;PMS_P1;PMS_P2;Temp;Humidity;BMP_temperature;BMP_pressure;BME280_temperature;BME280_humidity;BME280_pressure;Samples;Min_cycle;Max_cycle;Signal;HPM_P1;HPM_P2
2021/04/13 00:01:29;;;;;;;;;51.25;41.00;;;;;;;;3724311;38;21141;-62
2021/04/13 00:04:01;;;;;;;;;52.00;39.50;;;;;;;;3724321;38;21044;-62
2021/04/13 00:06:36;;;;;;;;;47.25;41.00;;;;;;;;3724631;38;21045;-61
2021/04/13 00:09:11;;;;;;;;;45.75;35.75;;;;;;;;3724668;37;21021;-62
2021/04/13 00:11:37;;;;;;;;;51.50;39.75;;;;;;;;3724693;37;21055;-61
2021/04/13 00:14:13;;;;;;;;;51.00;41.25;;;;;;;;3724613;38;21034;-63
2021/04/13 00:16:40;;;;;;;;;52.75;41.50;;;;;;;;3724374;37;21043;-63
2021/04/13 00:19:06;;;;;;;;;54.25;39.75;;;;;;;;3724570;37;21024;-61
2021/04/13 00:21:36;;;;;;;;;49.00;41.00;;;;;;;;3724602;37;21036;-62
2021/04/13 00:24:19;;;;;;;;;46.75;40.00;;;;;;;;3724713;38;21014;-61
2021/04/13 00:26:49;;;;;;;;;43.50;35.25;;;;;;;;3724464;37;21022;-62
2021/04/13 00:29:18;;;;;;;;;43.50;38.00;;;;;;;;3724885;37;21016;-62
2021/04/13 00:31:48;;;;;;;;;43.50;38.75;;;;;;;;3724709;37;21015;-62
2021/04/13 00:34:33;;;;;;;;;51.50;41.25;;;;;;;;3724353;37;21001;-63
2021/04/13 00:37:20;;;;;;;;;56.00;42.75;;;;;;;;3724797;38;20999;-61
2021/04/13 00:39:45;;;;;;;;;44.25;36.75;;;;;;;;3724831;37;21053;-62
2021/04/13 00:42:13;;;;;;;;;43.50;37.00;;;;;;;;3724773;37;20992;-62
2021/04/13 00:44:46;;;;;;;;;43.00;37.75;;;;;;;;3724956;37;17827;-61
2021/04/13 00:47:31;;;;;;;;;42.75;36.50;;;;;;;;3725189;38;21016;-62
2021/04/13 00:49:59;;;;;;;;;45.50;37.75;;;;;;;;3724721;37;20979;-62
2021/04/13 00:52:33;;;;;;;;;39.75;35.75;;;;;;;;3724686;37;20980;-62
2021/04/13 00:55:03;;;;;;;;;27.25;27.00;;;;;;;;3724722;37;20973;-63
2021/04/13 00:57:33;;;;;;;;;40.75;35.25;;;;;;;;3724743;37;20984;-62
2021/04/13 01:00:00;;;;;;;;;36.75;33.00;;;;;;;;3724483;37;21055;-61
2021/04/13 01:02:29;;;;;;;;;36.25;33.75;;;;;;;;3724815;38;20986;-62
2021/04/13 01:05:12;;;;;;;;;30.75;30.00;;;;;;;;3724798;37;20983;-62
2021/04/13 01:07:45;;;;;;;;;30.50;24.25;;;;;;;;3724756;37;20982;-61
2021/04/13 01:10:13;;;;;;;;;31.00;21.25;;;;;;;;3724932;38;20960;-61
2021/04/13 01:12:43;;;;;;;;;44.50;38.50;;;;;;;;3724413;37;20968;-61
2021/04/13 01:15:11;;;;;;;;;39.75;35.00;;;;;;;;3724191;37;20954;-60
2021/04/13 01:17:38;;;;;;;;;28.75;24.00;;;;;;;;3724663;38;20948;-61
2021/04/13 01:20:17;;;;;;;;;35.00;30.00;;;;;;;;3724903;38;20952;-62
2021/04/13 01:22:51;;;;;;;;;44.75;37.25;;;;;;;;3724879;38;20929;-62
2021/04/13 01:25:24;;;;;;;;;37.00;34.50;;;;;;;;3724498;37;20944;-62
2021/04/13 01:27:57;;;;;;;;;44.00;36.25;;;;;;;;3724743;38;20942;-62
2021/04/13 01:30:29;;;;;;;;;38.50;31.50;;;;;;;;3724737;38;20960;-61
2021/04/13 01:33:06;;;;;;;;;43.25;35.50;;;;;;;;3724921;37;20966;-61
2021/04/13 01:35:32;;;;;;;;;37.75;31.00;;;;;;;;3724911;38;20945;-60
2021/04/13 01:38:06;;;;;;;;;33.50;32.75;;;;;;;;3724833;38;20938;-60
2021/04/13 01:43:30;;;;;;;;;33.25;31.00;;;;;;;;3724788;37;20891;-60
2021/04/13 01:45:57;;;;;;;;;37.50;33.25;;;;;;;;3724814;37;20903;-60
2021/04/13 01:48:24;;;;;;;;;33.75;32.50;;;;;;;;3724906;38;20921;-59
2021/04/13 01:51:00;;;;;;;;;31.50;31.50;;;;;;;;3724718;37;20924;-61
2021/04/13 01:53:27;;;;;;;;;44.00;37.75;;;;;;;;3724866;37;20896;-61
2021/04/13 01:56:02;;;;;;;;;30.25;27.00;;;;;;;;3724730;37;20918;-61
2021/04/13 01:58:57;;;;;;;;;32.00;30.50;;;;;;;;3725215;38;20917;-60
2021/04/13 02:01:31;;;;;;;;;29.75;25.25;;;;;;;;3725196;38;20917;-61
2021/04/13 02:04:18;;;;;;;;;36.75;32.50;;;;;;;;3724804;38;20901;-61
2021/04/13 02:07:05;;;;;;;;;31.25;30.00;;;;;;;;3724961;37;20896;-61
2021/04/13 02:09:43;;;;;;;;;37.25;32.00;;;;;;;;3724943;38;20904;-61
2021/04/13 02:12:15;;;;;;;;;34.50;30.00;;;;;;;;3724472;38;20877;-61
2021/04/13 02:14:53;;;;;;;;;41.75;34.50;;;;;;;;3724663;38;20990;-60
2021/04/13 02:17:27;;;;;;;;;34.50;32.75;;;;;;;;3724802;38;20884;-61
2021/04/13 02:19:56;;;;;;;;;29.75;28.25;;;;;;;;3724765;38;20863;-61
2021/04/13 02:22:23;;;;;;;;;33.00;30.75;;;;;;;;3724658;38;20864;-60
2021/04/13 02:24:51;;;;;;;;;27.50;24.00;;;;;;;;3724836;38;20881;-60
2021/04/13 02:27:19;;;;;;;;;32.25;29.75;;;;;;;;3724751;37;20861;-61
2021/04/13 02:29:47;;;;;;;;;33.00;30.50;;;;;;;;3724765;37;20869;-60
2021/04/13 02:32:34;;;;;;;;;39.25;37.25;;;;;;;;3724948;37;20854;-61
2021/04/13 02:35:03;;;;;;;;;41.50;34.50;;;;;;;;3724861;38;20851;-61
2021/04/13 02:37:41;;;;;;;;;35.25;30.75;;;;;;;;3724538;37;20974;-61
2021/04/13 02:40:15;;;;;;;;;34.00;29.75;;;;;;;;3724253;37;20849;-61
2021/04/13 02:42:45;;;;;;;;;28.25;27.75;;;;;;;;3724961;38;21138;-60
2021/04/13 02:45:12;;;;;;;;;29.50;27.00;;;;;;;;3724729;38;20844;-61
2021/04/13 02:47:49;;;;;;;;;31.25;27.25;;;;;;;;3724794;37;20852;-60
2021/04/13 02:50:17;;;;;;;;;28.50;27.75;;;;;;;;3724943;38;20851;-59
2021/04/13 02:52:44;;;;;;;;;37.00;29.75;;;;;;;;3724913;37;20830;-59
2021/04/13 02:55:18;;;;;;;;;31.50;29.50;;;;;;;;3724807;37;21820;-59
2021/04/13 02:57:46;;;;;;;;;34.25;30.50;;;;;;;;3724883;38;20829;-60
2021/04/13 03:00:22;;;;;;;;;31.50;27.25;;;;;;;;3724769;37;20849;-60
2021/04/13 03:02:56;;;;;;;;;31.75;27.25;;;;;;;;3724706;37;20752;-59
2021/04/13 03:05:26;;;;;;;;;32.25;30.75;;;;;;;;3724857;38;21807;-59
2021/04/13 03:07:55;;;;;;;;;33.00;31.50;;;;;;;;3724809;38;20825;-59
2021/04/13 03:10:27;;;;;;;;;29.50;27.25;;;;;;;;3724957;38;20826;-60
2021/04/13 03:12:54;;;;;;;;;31.25;28.00;;;;;;;;3724921;37;21815;-60
2021/04/13 03:15:23;;;;;;;;;30.25;30.25;;;;;;;;3724561;37;21816;-58
2021/04/13 03:17:51;;;;;;;;;31.75;30.25;;;;;;;;3724697;37;21812;-59
2021/04/13 03:20:37;;;;;;;;;29.00;26.75;;;;;;;;3724775;38;21794;-59
2021/04/13 03:23:05;;;;;;;;;36.50;32.25;;;;;;;;3725026;37;21788;-60
2021/04/13 03:25:39;;;;;;;;;32.75;29.00;;;;;;;;3724906;38;21798;-59
2021/04/13 03:28:06;;;;;;;;;36.50;32.25;;;;;;;;3724458;37;21795;-61
2021/04/13 03:30:34;;;;;;;;;23.75;20.25;;;;;;;;3724850;38;21780;-60
2021/04/13 03:33:21;;;;;;;;;35.50;30.00;;;;;;;;3724939;38;21781;-60
2021/04/13 03:35:47;;;;;;;;;42.00;32.00;;;;;;;;3725024;37;21786;-60
2021/04/13 03:38:14;;;;;;;;;39.50;33.50;;;;;;;;3724718;38;21788;-60
2021/04/13 03:40:46;;;;;;;;;41.75;34.75;;;;;;;;3724945;38;18618;-60
2021/04/13 03:43:14;;;;;;;;;36.75;36.00;;;;;;;;3724776;38;21772;-61
2021/04/13 03:45:41;;;;;;;;;38.75;33.50;;;;;;;;3724545;38;21752;-60
2021/04/13 03:48:09;;;;;;;;;32.25;29.50;;;;;;;;3724887;38;21776;-59
2021/04/13 03:50:39;;;;;;;;;51.75;40.75;;;;;;;;3724737;38;21747;-59
2021/04/13 03:53:09;;;;;;;;;55.50;45.25;;;;;;;;3724750;37;21763;-60
2021/04/13 03:55:35;;;;;;;;;44.25;39.00;;;;;;;;3724783;38;21774;-59
2021/04/13 03:58:24;;;;;;;;;50.00;39.25;;;;;;;;3724924;37;21737;-59
2021/04/13 04:00:52;;;;;;;;;44.00;38.25;;;;;;;;3724880;37;21736;-59
2021/04/13 04:03:18;;;;;;;;;61.50;47.75;;;;;;;;3724975;37;21742;-59
2021/04/13 04:05:46;;;;;;;;;53.00;44.75;;;;;;;;3724789;38;21740;-60
2021/04/13 04:08:16;;;;;;;;;61.50;47.50;;;;;;;;3724818;37;21735;-61
2021/04/13 04:10:48;;;;;;;;;58.00;46.00;;;;;;;;3724912;38;21756;-59
2021/04/13 04:13:34;;;;;;;;;54.50;42.75;;;;;;;;3725044;37;21743;-59
2021/04/13 04:16:19;;;;;;;;;52.25;41.00;;;;;;;;3724767;37;21768;-60
2021/04/13 04:18:49;;;;;;;;;48.50;40.50;;;;;;;;3724836;37;21743;-60
2021/04/13 04:21:35;;;;;;;;;52.00;43.25;;;;;;;;3724927;37;21760;-61
2021/04/13 04:24:16;;;;;;;;;55.00;39.50;;;;;;;;3725056;38;21749;-60
2021/04/13 04:26:49;;;;;;;;;46.25;41.25;;;;;;;;3725141;38;21721;-60
2021/04/13 04:29:17;;;;;;;;;59.00;47.50;;;;;;;;3725237;38;21709;-61
2021/04/13 04:31:44;;;;;;;;;59.00;45.00;;;;;;;;3724966;37;21716;-61
2021/04/13 04:34:33;;;;;;;;;56.50;46.75;;;;;;;;3725141;38;21723;-60
2021/04/13 04:37:00;;;;;;;;;70.50;53.50;;;;;;;;3724872;37;21714;-61
2021/04/13 04:39:27;;;;;;;;;71.25;54.50;;;;;;;;3724511;38;21741;-60
2021/04/13 04:41:54;;;;;;;;;70.50;55.25;;;;;;;;3725062;37;21709;-60
2021/04/13 04:44:23;;;;;;;;;75.75;59.25;;;;;;;;3725041;38;18643;-60
2021/04/13 04:46:49;;;;;;;;;72.25;57.00;;;;;;;;3724834;38;18552;-59
2021/04/13 04:49:16;;;;;;;;;73.25;57.25;;;;;;;;3724992;38;18548;-60
2021/04/13 04:51:46;;;;;;;;;65.50;52.00;;;;;;;;3724776;37;18539;-60
2021/04/13 04:54:12;;;;;;;;;64.50;52.75;;;;;;;;3725031;37;21706;-62
2021/04/13 04:56:37;;;;;;;;;59.25;48.00;;;;;;;;3725047;37;21710;-61
2021/04/13 04:59:03;;;;;;;;;57.75;46.75;;;;;;;;3725123;38;18513;-62
2021/04/13 05:01:29;;;;;;;;;54.25;44.25;;;;;;;;3725018;37;18527;-61
2021/04/13 05:03:55;;;;;;;;;49.25;40.00;;;;;;;;3724867;37;21699;-60
2021/04/13 05:06:21;;;;;;;;;57.50;43.75;;;;;;;;3724935;37;18530;-61
2021/04/13 05:08:47;;;;;;;;;45.75;37.50;;;;;;;;3725061;38;18495;-60
2021/04/13 05:11:14;;;;;;;;;44.75;38.75;;;;;;;;3724949;37;21678;-61
2021/04/13 05:13:40;;;;;;;;;41.00;36.75;;;;;;;;3724979;38;21684;-62
2021/04/13 05:16:06;;;;;;;;;35.00;31.50;;;;;;;;3724858;37;21658;-60
2021/04/13 05:18:32;;;;;;;;;35.50;34.25;;;;;;;;3724973;37;21641;-61
2021/04/13 05:20:59;;;;;;;;;37.00;34.25;;;;;;;;3725143;37;18503;-60
2021/04/13 05:23:25;;;;;;;;;41.00;36.00;;;;;;;;3725030;38;21624;-60
2021/04/13 05:25:52;;;;;;;;;43.75;35.00;;;;;;;;3725303;37;18714;-61
2021/04/13 05:28:18;;;;;;;;;28.50;27.25;;;;;;;;3725004;37;18486;-58
2021/04/13 05:30:52;;;;;;;;;30.50;28.50;;;;;;;;3725020;37;21551;-59
2021/04/13 05:33:20;;;;;;;;;31.25;31.25;;;;;;;;3725112;38;21543;-61
2021/04/13 05:35:48;;;;;;;;;37.75;33.00;;;;;;;;3725065;37;21710;-62
2021/04/13 05:38:18;;;;;;;;;32.00;30.25;;;;;;;;3725067;37;21560;-62
2021/04/13 05:40:44;;;;;;;;;28.00;26.75;;;;;;;;3725008;37;21523;-59
2021/04/13 05:43:11;;;;;;;;;34.50;30.25;;;;;;;;3724998;38;21643;-60
2021/04/13 05:45:37;;;;;;;;;35.75;32.00;;;;;;;;3724741;37;18457;-59
2021/04/13 05:48:04;;;;;;;;;36.75;30.00;;;;;;;;3724825;38;21620;-59
2021/04/13 05:50:31;;;;;;;;;35.00;28.75;;;;;;;;3724967;38;21591;-60
2021/04/13 05:52:57;;;;;;;;;36.00;32.25;;;;;;;;3725212;37;21549;-60
2021/04/13 05:55:23;;;;;;;;;32.75;30.50;;;;;;;;3725257;38;21820;-58
2021/04/13 05:57:52;;;;;;;;;37.75;32.50;;;;;;;;3725600;37;18422;-59
2021/04/13 06:00:19;;;;;;;;;35.50;32.25;;;;;;;;3725419;37;18420;-60
2021/04/13 06:02:45;;;;;;;;;31.25;28.50;;;;;;;;3725205;38;21471;-60
2021/04/13 06:05:12;;;;;;;;;33.50;32.25;;;;;;;;3724937;37;21478;-59
2021/04/13 06:07:39;;;;;;;;;29.75;27.50;;;;;;;;3724818;37;21489;-60
2021/04/13 06:10:05;;;;;;;;;32.75;29.00;;;;;;;;3724944;37;21477;-62
2021/04/13 06:12:31;;;;;;;;;28.75;26.75;;;;;;;;3725105;38;18436;-59
2021/04/13 06:14:58;;;;;;;;;26.25;24.00;;;;;;;;3724598;37;21497;-62
2021/04/13 06:17:24;;;;;;;;;31.00;28.50;;;;;;;;3724708;37;21524;-59
2021/04/13 06:19:50;;;;;;;;;30.25;28.00;;;;;;;;3724896;37;21425;-61
2021/04/13 06:22:16;;;;;;;;;31.50;28.00;;;;;;;;3725167;37;18422;-61
2021/04/13 06:24:42;;;;;;;;;33.00;30.75;;;;;;;;3725277;37;18384;-60
2021/04/13 06:27:09;;;;;;;;;29.00;26.50;;;;;;;;3725001;37;18380;-61
2021/04/13 06:29:38;;;;;;;;;26.50;24.00;;;;;;;;3725143;37;21449;-60
2021/04/13 06:32:05;;;;;;;;;32.75;28.00;;;;;;;;3724625;37;21448;-60
2021/04/13 06:34:31;;;;;;;;;30.75;29.00;;;;;;;;3724966;38;21476;-59
2021/04/13 06:36:57;;;;;;;;;45.75;37.75;;;;;;;;3724864;38;21458;-59
2021/04/13 06:39:25;;;;;;;;;29.50;27.00;;;;;;;;3725203;38;18395;-60
2021/04/13 06:42:01;;;;;;;;;31.50;26.50;;;;;;;;3725060;37;21454;-60
2021/04/13 06:44:53;;;;;;;;;24.50;23.75;;;;;;;;3725022;37;21434;-59
2021/04/13 06:47:57;;;;;;;;;30.00;27.00;;;;;;;;3724901;37;21451;-59
2021/04/13 06:50:34;;;;;;;;;28.00;25.00;;;;;;;;3725017;38;21452;-60
2021/04/13 06:53:22;;;;;;;;;25.25;24.25;;;;;;;;3724679;38;21424;-61
2021/04/13 06:56:00;;;;;;;;;26.00;24.00;;;;;;;;3724977;37;21415;-62
2021/04/13 06:58:42;;;;;;;;;27.00;25.50;;;;;;;;3724930;38;21404;-60
2021/04/13 07:01:17;;;;;;;;;25.25;24.75;;;;;;;;3725002;38;21413;-61
2021/04/13 07:04:01;;;;;;;;;28.00;24.25;;;;;;;;3724898;38;21407;-59
2021/04/13 07:06:47;;;;;;;;;29.50;29.50;;;;;;;;3725058;37;21422;-60
2021/04/13 07:09:31;;;;;;;;;30.00;26.75;;;;;;;;3725178;37;21405;-60
2021/04/13 07:12:04;;;;;;;;;26.75;25.50;;;;;;;;3724678;37;21442;-60
2021/04/13 07:14:32;;;;;;;;;29.00;26.00;;;;;;;;3724922;37;21396;-59
2021/04/13 07:17:01;;;;;;;;;28.50;28.00;;;;;;;;3724827;38;21411;-62
2021/04/13 07:19:31;;;;;;;;;29.25;27.75;;;;;;;;3724891;37;21370;-60
2021/04/13 07:22:02;;;;;;;;;30.50;27.00;;;;;;;;3725011;38;21374;-60
2021/04/13 07:24:36;;;;;;;;;28.75;27.75;;;;;;;;3724861;38;21391;-59
2021/04/13 07:27:10;;;;;;;;;26.00;24.00;;;;;;;;3724759;37;21383;-59
2021/04/13 07:29:44;;;;;;;;;31.25;26.25;;;;;;;;3724851;38;21380;-61
2021/04/13 07:32:20;;;;;;;;;26.25;23.50;;;;;;;;3724916;37;21386;-60
2021/04/13 07:34:48;;;;;;;;;26.25;24.25;;;;;;;;3724728;37;21361;-58
2021/04/13 07:37:23;;;;;;;;;26.25;25.50;;;;;;;;3724482;37;21355;-61
2021/04/13 07:39:54;;;;;;;;;28.75;27.00;;;;;;;;3725057;37;21371;-62
2021/04/13 07:42:26;;;;;;;;;28.75;26.25;;;;;;;;3725124;38;21353;-60
2021/04/13 07:45:15;;;;;;;;;26.00;23.75;;;;;;;;3725006;38;21321;-60
2021/04/13 07:48:00;;;;;;;;;27.75;22.75;;;;;;;;3724934;38;21368;-61
2021/04/13 07:50:36;;;;;;;;;28.50;28.00;;;;;;;;3724960;37;21380;-60
2021/04/13 07:53:08;;;;;;;;;31.00;28.25;;;;;;;;3724975;37;21613;-60
2021/04/13 07:55:46;;;;;;;;;28.50;26.00;;;;;;;;3725107;38;21311;-59
2021/04/13 07:58:19;;;;;;;;;29.75;28.75;;;;;;;;3724959;37;21313;-62
2021/04/13 08:00:50;;;;;;;;;28.00;26.00;;;;;;;;3724542;38;21336;-64
2021/04/13 08:03:20;;;;;;;;;27.25;25.50;;;;;;;;3724979;37;21308;-60
2021/04/13 08:05:50;;;;;;;;;30.00;29.50;;;;;;;;3724930;37;21310;-58
2021/04/13 08:08:32;;;;;;;;;27.00;25.50;;;;;;;;3724961;38;21302;-59
2021/04/13 08:11:05;;;;;;;;;29.75;28.50;;;;;;;;3724920;37;21307;-59
2021/04/13 08:13:40;;;;;;;;;33.00;29.00;;;;;;;;3725056;37;21298;-59
2021/04/13 08:16:06;;;;;;;;;31.75;29.50;;;;;;;;3724961;38;21323;-60
2021/04/13 08:18:52;;;;;;;;;27.00;24.50;;;;;;;;3724913;38;21272;-60
2021/04/13 08:21:20;;;;;;;;;33.25;31.50;;;;;;;;3725001;38;18248;-60
2021/04/13 08:23:48;;;;;;;;;35.50;30.75;;;;;;;;3725075;38;21283;-60
2021/04/13 08:26:34;;;;;;;;;30.50;27.25;;;;;;;;3724987;37;21284;-62
2021/04/13 08:29:23;;;;;;;;;32.25;29.25;;;;;;;;3725008;38;21301;-60
2021/04/13 08:35:08;;;;;;;;;35.25;30.00;;;;;;;;3724838;38;21244;-61
2021/04/13 08:37:52;;;;;;;;;28.25;26.50;;;;;;;;3724746;37;21299;-61
2021/04/13 08:40:44;;;;;;;;;29.75;28.25;;;;;;;;3724854;37;21324;-60
2021/04/13 08:43:20;;;;;;;;;29.50;27.50;;;;;;;;3721487;38;21286;-61
2021/04/13 08:45:52;;;;;;;;;31.50;30.25;;;;;;;;3718171;37;21259;-60
2021/04/13 08:48:29;;;;;;;;;24.50;21.75;;;;;;;;3724159;37;21248;-60
2021/04/13 08:51:09;;;;;;;;;31.75;29.75;;;;;;;;3724587;37;21264;-60
2021/04/13 08:53:39;;;;;;;;;26.00;24.00;;;;;;;;3724995;38;21250;-60
2021/04/13 08:56:18;;;;;;;;;34.25;32.25;;;;;;;;3725038;37;21259;-58
2021/04/13 08:58:49;;;;;;;;;25.75;24.00;;;;;;;;3724616;37;21258;-60
2021/04/13 09:01:26;;;;;;;;;26.50;26.50;;;;;;;;3725003;37;21249;-59
2021/04/13 09:03:52;;;;;;;;;29.00;29.00;;;;;;;;3724964;37;21244;-59
2021/04/13 09:06:38;;;;;;;;;28.75;27.25;;;;;;;;3726496;38;21251;-58
2021/04/13 09:09:27;;;;;;;;;30.25;26.50;;;;;;;;3725055;37;21227;-60
2021/04/13 09:12:18;;;;;;;;;28.00;26.75;;;;;;;;3725007;37;21261;-59
2021/04/13 09:15:01;;;;;;;;;28.25;26.25;;;;;;;;3724911;38;21239;-60
2021/04/13 09:17:34;;;;;;;;;26.75;25.50;;;;;;;;3724980;38;21195;-59
2021/04/13 09:20:11;;;;;;;;;27.00;26.75;;;;;;;;3724878;37;21222;-59
2021/04/13 09:22:47;;;;;;;;;29.00;27.00;;;;;;;;3724958;37;21203;-59
2021/04/13 09:25:25;;;;;;;;;28.25;26.25;;;;;;;;3725021;37;21038;-58
2021/04/13 09:27:53;;;;;;;;;26.75;24.50;;;;;;;;3724810;38;21179;-59
2021/04/13 09:30:25;;;;;;;;;28.75;25.50;;;;;;;;3724916;38;21211;-58
2021/04/13 09:33:00;;;;;;;;;22.00;20.50;;;;;;;;3724960;37;21214;-59
2021/04/13 09:35:44;;;;;;;;;20.75;18.75;;;;;;;;3725119;37;21188;-59
2021/04/13 09:38:29;;;;;;;;;23.00;20.75;;;;;;;;3725047;38;21242;-61
2021/04/13 09:41:14;;;;;;;;;22.50;22.50;;;;;;;;3724940;38;21197;-61
2021/04/13 09:43:48;;;;;;;;;21.75;18.25;;;;;;;;3725103;37;21195;-61
2021/04/13 09:46:32;;;;;;;;;25.00;23.50;;;;;;;;3725210;38;21185;-60
2021/04/13 09:49:17;;;;;;;;;22.25;22.25;;;;;;;;3723803;38;21208;-60
2021/04/13 09:52:09;;;;;;;;;17.25;15.50;;;;;;;;3723781;38;21176;-60
2021/04/13 09:54:41;;;;;;;;;23.75;22.00;;;;;;;;3724880;38;21185;-60
2021/04/13 09:57:41;;;;;;;;;19.00;18.00;;;;;;;;3724880;37;21184;-60
2021/04/13 10:00:30;;;;;;;;;23.75;20.00;;;;;;;;3724917;38;21188;-60
2021/04/13 10:03:27;;;;;;;;;17.75;17.00;;;;;;;;3723087;38;21197;-60
2021/04/13 10:05:55;;;;;;;;;20.00;18.00;;;;;;;;3724833;37;21171;-59
2021/04/13 10:08:22;;;;;;;;;20.75;20.00;;;;;;;;3724363;37;21161;-59
2021/04/13 10:11:06;;;;;;;;;19.25;17.25;;;;;;;;3724837;38;21149;-61
2021/04/13 10:13:52;;;;;;;;;19.00;18.25;;;;;;;;3724850;37;21184;-61
2021/04/13 10:16:27;;;;;;;;;17.00;15.25;;;;;;;;3724815;38;21124;-60
2021/04/13 10:19:11;;;;;;;;;20.75;18.75;;;;;;;;3725007;37;21114;-60
2021/04/13 10:21:51;;;;;;;;;25.25;24.50;;;;;;;;3724913;37;21192;-61
2021/04/13 10:24:41;;;;;;;;;16.75;15.00;;;;;;;;3725010;38;21113;-64
2021/04/13 10:27:36;;;;;;;;;17.50;17.00;;;;;;;;3724801;38;20934;-61
2021/04/13 10:30:22;;;;;;;;;18.25;18.00;;;;;;;;3725173;38;21133;-61
2021/04/13 10:33:05;;;;;;;;;16.25;14.50;;;;;;;;3725028;37;21154;-60
2021/04/13 10:35:49;;;;;;;;;26.50;22.75;;;;;;;;3725038;38;21230;-60
2021/04/13 10:38:32;;;;;;;;;15.00;14.00;;;;;;;;3724988;38;21140;-60
2021/04/13 10:41:17;;;;;;;;;15.75;14.50;;;;;;;;3725132;37;21066;-60
2021/04/13 10:44:03;;;;;;;;;19.00;16.75;;;;;;;;3725085;38;21130;-60
2021/04/13 10:46:51;;;;;;;;;16.75;15.00;;;;;;;;3724933;38;21091;-60
2021/04/13 10:49:52;;;;;;;;;13.00;12.50;;;;;;;;3724822;37;21160;-61
2021/04/13 10:52:37;;;;;;;;;16.75;14.75;;;;;;;;3725097;38;21150;-61
2021/04/13 10:55:24;;;;;;;;;14.75;14.75;;;;;;;;3724883;37;21152;-59
2021/04/13 10:58:06;;;;;;;;;14.00;14.00;;;;;;;;3724982;38;21114;-60
2021/04/13 11:00:52;;;;;;;;;14.50;12.25;;;;;;;;3724975;38;21127;-60
2021/04/13 11:03:35;;;;;;;;;14.75;12.00;;;;;;;;3725057;38;21128;-62
2021/04/13 11:06:24;;;;;;;;;13.50;13.50;;;;;;;;3725368;37;21170;-59
2021/04/13 11:09:15;;;;;;;;;18.00;15.25;;;;;;;;3726187;38;21172;-59
2021/04/13 11:12:06;;;;;;;;;12.50;11.50;;;;;;;;3725877;38;21101;-61
2021/04/13 11:14:53;;;;;;;;;9.25;8.50;;;;;;;;3725197;38;21054;-61
2021/04/13 11:17:48;;;;;;;;;14.25;14.25;;;;;;;;3725033;37;21002;-60
2021/04/13 11:20:28;;;;;;;;;13.50;11.75;;;;;;;;3725148;37;21100;-59
2021/04/13 11:23:25;;;;;;;;;19.75;17.75;;;;;;;;3725076;38;21031;-60
2021/04/13 11:26:11;;;;;;;;;15.00;13.25;;;;;;;;3725144;37;21065;-61
2021/04/13 11:29:15;;;;;;;;;13.50;12.00;;;;;;;;3724970;37;21325;-60
2021/04/13 11:32:01;;;;;;;;;12.00;11.25;;;;;;;;3725052;37;21099;-59
2021/04/13 11:34:39;;;;;;;;;14.00;12.00;;;;;;;;3724969;37;21067;-59
2021/04/13 11:37:19;;;;;;;;;14.75;14.75;;;;;;;;3724997;38;21076;-60
2021/04/13 11:40:02;;;;;;;;;12.25;12.25;;;;;;;;3725106;37;21086;-60
2021/04/13 11:42:30;;;;;;;;;12.25;10.75;;;;;;;;3725198;38;21083;-60
2021/04/13 11:45:21;;;;;;;;;13.75;13.75;;;;;;;;3724995;37;21062;-60
2021/04/13 11:47:53;;;;;;;;;17.00;14.50;;;;;;;;3725198;37;21073;-62
2021/04/13 11:50:53;;;;;;;;;12.25;11.25;;;;;;;;3725130;37;21085;-61
2021/04/13 11:53:39;;;;;;;;;13.75;13.25;;;;;;;;3725839;38;21159;-61
2021/04/13 11:56:43;;;;;;;;;13.75;12.25;;;;;;;;3729356;37;21061;-62
2021/04/13 11:59:23;;;;;;;;;12.50;11.25;;;;;;;;3727858;37;21048;-62
2021/04/13 12:01:55;;;;;;;;;13.50;12.25;;;;;;;;3727238;37;21035;-60
2021/04/13 12:04:23;;;;;;;;;14.00;12.00;;;;;;;;3726685;37;20904;-61
2021/04/13 12:06:57;;;;;;;;;12.75;12.75;;;;;;;;3727443;37;21049;-60
2021/04/13 12:10:02;;;;;;;;;13.25;12.00;;;;;;;;3726993;37;21006;-60
2021/04/13 12:12:46;;;;;;;;;9.50;9.50;;;;;;;;3724907;37;20961;-62
2021/04/13 12:15:32;;;;;;;;;11.25;11.25;;;;;;;;3724938;38;20913;-62
2021/04/13 12:17:59;;;;;;;;;12.75;12.75;;;;;;;;3725078;38;21032;-61
2021/04/13 12:20:39;;;;;;;;;18.25;15.50;;;;;;;;3725158;38;21002;-61
2021/04/13 12:23:24;;;;;;;;;12.00;10.75;;;;;;;;3725798;38;20977;-60
2021/04/13 12:26:10;;;;;;;;;12.00;11.00;;;;;;;;3725193;37;20951;-61
2021/04/13 12:28:46;;;;;;;;;14.00;12.50;;;;;;;;3725228;38;20937;-61
2021/04/13 12:31:15;;;;;;;;;14.50;13.75;;;;;;;;3725138;37;20969;-61
2021/04/13 12:33:58;;;;;;;;;16.00;14.75;;;;;;;;3725107;37;21003;-63
2021/04/13 12:36:41;;;;;;;;;18.75;18.00;;;;;;;;3725264;37;21030;-62
2021/04/13 12:39:14;;;;;;;;;12.50;12.50;;;;;;;;3724962;37;21003;-60
2021/04/13 12:41:55;;;;;;;;;15.75;14.50;;;;;;;;3725126;37;20979;-63
2021/04/13 12:44:26;;;;;;;;;13.00;11.75;;;;;;;;3724826;37;20996;-61
2021/04/13 12:46:54;;;;;;;;;120.00;111.75;;;;;;;;3724915;37;21069;-61
2021/04/13 12:49:30;;;;;;;;;27.00;27.00;;;;;;;;3725124;37;17883;-59
2021/04/13 12:52:07;;;;;;;;;21.50;19.50;;;;;;;;3725083;38;20962;-61
2021/04/13 12:54:41;;;;;;;;;14.50;12.50;;;;;;;;3724909;38;20944;-62
2021/04/13 12:57:20;;;;;;;;;18.00;15.50;;;;;;;;3724952;37;20965;-65
2021/04/13 12:59:46;;;;;;;;;13.00;12.00;;;;;;;;3724998;37;21005;-61
2021/04/13 13:02:31;;;;;;;;;14.00;13.00;;;;;;;;3724745;38;21003;-63
2021/04/13 13:04:57;;;;;;;;;19.00;13.75;;;;;;;;3725007;38;20907;-62
2021/04/13 13:07:25;;;;;;;;;14.00;12.75;;;;;;;;3724870;38;20951;-62
2021/04/13 13:09:51;;;;;;;;;12.25;12.25;;;;;;;;3724959;38;17874;-61
2021/04/13 13:12:28;;;;;;;;;15.50;14.50;;;;;;;;3724989;37;20938;-63
2021/04/13 13:15:21;;;;;;;;;21.50;20.50;;;;;;;;3724958;37;20964;-62
2021/04/13 13:17:50;;;;;;;;;14.00;13.00;;;;;;;;3724919;37;20904;-61
2021/04/13 13:20:34;;;;;;;;;13.50;12.25;;;;;;;;3725080;37;20939;-61
2021/04/13 13:23:00;;;;;;;;;15.25;12.25;;;;;;;;3725136;37;20885;-63
2021/04/13 13:25:29;;;;;;;;;13.25;12.50;;;;;;;;3724501;37;20950;-61
2021/04/13 13:28:19;;;;;;;;;15.00;13.00;;;;;;;;3725041;37;17840;-61
2021/04/13 13:30:46;;;;;;;;;14.75;14.75;;;;;;;;3725101;38;20933;-62
2021/04/13 13:33:12;;;;;;;;;13.50;12.25;;;;;;;;3725010;38;20916;-62
2021/04/13 13:35:38;;;;;;;;;16.00;14.50;;;;;;;;3724807;37;20912;-63
2021/04/13 13:38:04;;;;;;;;;13.25;11.25;;;;;;;;3724826;37;20902;-62
2021/04/13 13:40:33;;;;;;;;;15.75;14.75;;;;;;;;3724655;37;17819;-61
2021/04/13 13:43:00;;;;;;;;;15.25;14.00;;;;;;;;3724651;38;20959;-58
2021/04/13 13:45:30;;;;;;;;;14.50;14.25;;;;;;;;3725944;37;20946;-62
2021/04/13 13:48:15;;;;;;;;;13.00;13.00;;;;;;;;3724927;38;20945;-62
2021/04/13 13:50:41;;;;;;;;;14.25;13.25;;;;;;;;3724954;38;21025;-62
2021/04/13 13:53:21;;;;;;;;;14.00;13.50;;;;;;;;3724945;38;20906;-65
2021/04/13 13:56:00;;;;;;;;;12.50;12.00;;;;;;;;3721349;37;20900;-62
2021/04/13 13:58:30;;;;;;;;;14.25;14.00;;;;;;;;3724763;38;20880;-61
2021/04/13 14:01:00;;;;;;;;;17.25;15.50;;;;;;;;3725002;37;20883;-61
2021/04/13 14:03:58;;;;;;;;;15.25;15.25;;;;;;;;3725130;38;20903;-61
2021/04/13 14:06:30;;;;;;;;;14.50;14.00;;;;;;;;3725487;38;20854;-63
2021/04/13 14:09:27;;;;;;;;;11.50;11.50;;;;;;;;3725366;37;20865;-61
2021/04/13 14:11:54;;;;;;;;;13.25;13.00;;;;;;;;3725190;37;21199;-61
2021/04/13 14:14:30;;;;;;;;;13.00;11.75;;;;;;;;3725472;37;20850;-62
2021/04/13 14:16:56;;;;;;;;;12.50;11.50;;;;;;;;3725232;38;20881;-61
2021/04/13 14:19:30;;;;;;;;;10.75;10.75;;;;;;;;3725077;38;20823;-62
2021/04/13 14:22:02;;;;;;;;;11.25;10.50;;;;;;;;3725256;37;20820;-62
2021/04/13 14:24:33;;;;;;;;;13.50;13.25;;;;;;;;3725279;38;20869;-61
2021/04/13 14:27:06;;;;;;;;;12.75;11.75;;;;;;;;3725408;37;20852;-64
2021/04/13 14:29:33;;;;;;;;;11.50;11.25;;;;;;;;3724934;38;20871;-61
2021/04/13 14:32:00;;;;;;;;;17.00;16.25;;;;;;;;3725395;38;20501;-61
2021/04/13 14:34:29;;;;;;;;;12.75;12.75;;;;;;;;3725477;38;20780;-62
2021/04/13 14:37:06;;;;;;;;;12.00;10.50;;;;;;;;3724770;37;20794;-63
2021/04/13 14:39:34;;;;;;;;;13.00;11.25;;;;;;;;3725237;38;20810;-62
2021/04/13 14:42:00;;;;;;;;;51.00;43.50;;;;;;;;3725374;38;20800;-63
2021/04/13 14:44:27;;;;;;;;;21.00;17.75;;;;;;;;3725201;38;20896;-62
2021/04/13 14:46:54;;;;;;;;;9.50;8.75;;;;;;;;3725448;38;17725;-63
2021/04/13 14:49:20;;;;;;;;;14.75;14.00;;;;;;;;3725266;37;20730;-62
2021/04/13 14:51:46;;;;;;;;;17.75;17.25;;;;;;;;3725361;38;20818;-61
2021/04/13 14:54:11;;;;;;;;;12.00;11.25;;;;;;;;3725542;37;20719;-61
2021/04/13 14:56:37;;;;;;;;;12.00;11.50;;;;;;;;3725658;37;17716;-62
2021/04/13 14:59:06;;;;;;;;;17.25;16.25;;;;;;;;3726027;37;17742;-61
2021/04/13 15:01:33;;;;;;;;;15.00;14.00;;;;;;;;3725404;37;20806;-61
2021/04/13 15:04:00;;;;;;;;;11.25;11.25;;;;;;;;3725228;38;20789;-62
2021/04/13 15:06:26;;;;;;;;;15.00;15.00;;;;;;;;3725339;37;17691;-64